Time;durP1;ratioP1;P1;durP2;ratioP2;P2;SDS_P1;SDS_P2;PMS_P1;PMS_P2;Temp;Humidity;BMP_temperature;BMP_pressure;BME280_temperature;BME280_humidity;BME280_pressure;Samples;Min_cycle;Max_cycle;Signal;HPM_P1;HPM_P2
2021/07/22 00:01:45;;;;;;;4.15;3.05;;;;;;;13.13;80.08;98413.72;4991898;28;20042;-67
2021/07/22 00:04:10;;;;;;;6.07;2.85;;;;;;;13.11;80.22;98412.41;4991940;28;20089;-66
2021/07/22 00:06:36;;;;;;;4.07;3.05;;;;;;;13.09;80.38;98419.91;4990403;28;20065;-67
2021/07/22 00:09:02;;;;;;;6.03;3.10;;;;;;;13.06;80.57;98415.09;4990377;28;20042;-67
2021/07/22 00:11:28;;;;;;;5.43;3.03;;;;;;;13.03;80.47;98419.13;4991821;28;20058;-67
2021/07/22 00:13:53;;;;;;;3.70;2.88;;;;;;;13.05;80.74;98424.16;4994259;28;20045;-68
2021/07/22 00:16:19;;;;;;;6.32;3.10;;;;;;;13.02;80.48;98430.03;4995325;28;20043;-67
2021/07/22 00:18:45;;;;;;;4.88;3.10;;;;;;;13.01;80.57;98433.78;4995422;28;20401;-68
2021/07/22 00:21:11;;;;;;;6.03;3.15;;;;;;;12.99;80.41;98438.56;4995317;28;20129;-66
2021/07/22 00:23:38;;;;;;;6.15;3.03;;;;;;;12.95;80.52;98427.69;4994128;28;20042;-66
2021/07/22 00:26:04;;;;;;;2.85;2.50;;;;;;;12.95;80.42;98430.34;4993555;28;20054;-66
2021/07/22 00:28:30;;;;;;;5.75;2.83;;;;;;;12.93;80.35;98429.81;4994995;28;20042;-67
2021/07/22 00:30:57;;;;;;;6.45;3.05;;;;;;;12.91;80.70;98434.63;4993719;28;20470;-66
2021/07/22 00:33:25;;;;;;;5.05;3.40;;;;;;;12.87;80.76;98431.72;4977381;28;20419;-65
2021/07/22 00:35:52;;;;;;;4.70;2.83;;;;;;;12.83;80.83;98435.22;4995113;28;20050;-67
2021/07/22 00:38:17;;;;;;;4.63;2.85;;;;;;;12.83;80.45;98440.53;4993774;28;20041;-65
2021/07/22 00:40:46;;;;;;;4.07;2.83;;;;;;;12.80;80.56;98438.44;4993383;28;20038;-67
2021/07/22 00:43:13;;;;;;;4.38;2.85;;;;;;;12.71;80.93;98436.34;4993577;28;20057;-66
2021/07/22 00:45:39;;;;;;;3.75;2.65;;;;;;;12.73;80.78;98446.69;4993371;28;20042;-66
2021/07/22 00:48:05;;;;;;;4.47;3.00;;;;;;;12.67;80.44;98437.94;4994697;28;20053;-68
2021/07/22 00:50:31;;;;;;;6.05;2.50;;;;;;;12.72;80.05;98445.91;4993353;28;20034;-66
2021/07/22 00:53:00;;;;;;;3.67;2.70;;;;;;;12.69;80.18;98441.13;4993360;28;20272;-67
2021/07/22 00:55:28;;;;;;;;;;;;;;;12.67;80.51;98445.13;4993720;28;20603;-66
2021/07/22 00:57:55;;;;;;;3.92;2.67;;;;;;;12.65;79.94;98449.94;4993545;28;19980;-66
2021/07/22 01:00:21;;;;;;;3.53;2.55;;;;;;;12.62;79.80;98443.31;4993185;28;20416;-68
2021/07/22 01:02:48;;;;;;;5.15;2.90;;;;;;;12.62;79.94;98445.16;4994636;28;20042;-68
2021/07/22 01:05:14;;;;;;;3.10;2.30;;;;;;;12.60;79.99;98447.31;4993030;28;20185;-67
2021/07/22 01:07:40;;;;;;;3.38;2.45;;;;;;;12.58;79.80;98444.09;4994464;28;20125;-67
2021/07/22 01:10:08;;;;;;;5.32;2.70;;;;;;;12.57;80.04;98443.31;4993154;28;20046;-67
2021/07/22 01:12:36;;;;;;;3.97;2.38;;;;;;;12.56;79.88;98443.56;4993997;28;20046;-65
2021/07/22 01:15:02;;;;;;;4.53;2.47;;;;;;;12.56;79.87;98447.06;4994259;28;20555;-67
2021/07/22 01:17:35;;;;;;;3.53;2.80;;;;;;;12.57;79.42;98448.63;4993013;28;20049;-66
2021/07/22 01:20:02;;;;;;;3.45;2.20;;;;;;;12.57;79.52;98448.63;4976788;28;20042;-67
2021/07/22 01:22:30;;;;;;;4.82;2.65;;;;;;;12.56;79.26;98452.38;4994443;28;20140;-67
2021/07/22 01:24:56;;;;;;;2.17;1.92;;;;;;;12.56;78.83;98447.06;4992625;28;20535;-68
2021/07/22 01:27:22;;;;;;;4.70;2.30;;;;;;;12.67;77.96;98453.09;4992421;28;20059;-67
2021/07/22 01:29:51;;;;;;;4.40;2.35;;;;;;;12.77;77.42;98465.56;4994141;28;20512;-66
2021/07/22 01:32:17;;;;;;;5.53;2.38;;;;;;;12.84;77.34;98455.41;4992793;28;20046;-67
2021/07/22 01:34:46;;;;;;;2.67;2.13;;;;;;;13.01;76.00;98455.84;4992567;28;20046;-67
2021/07/22 01:37:15;;;;;;;4.20;2.35;;;;;;;13.18;75.43;98466.91;4994225;28;20420;-66
2021/07/22 01:39:41;;;;;;;4.38;2.08;;;;;;;13.33;74.64;98459.94;4976274;28;20052;-65
2021/07/22 01:42:07;;;;;;;6.57;2.10;;;;;;;13.53;73.16;98459.75;4993977;28;20050;-67
2021/07/22 01:44:34;;;;;;;4.07;1.98;;;;;;;13.72;72.55;98465.19;4992397;28;20074;-67
2021/07/22 01:47:05;;;;;;;7.53;2.30;;;;;;;13.91;71.67;98464.47;4992406;28;20072;-67
2021/07/22 01:49:32;;;;;;;2.53;2.05;;;;;;;14.15;71.04;98465.31;4992235;28;20092;-67
2021/07/22 01:52:00;;;;;;;4.38;1.80;;;;;;;14.39;69.08;98465.31;4993885;28;20533;-67
2021/07/22 01:54:30;;;;;;;3.20;1.88;;;;;;;14.63;68.77;98473.31;4992208;28;20046;-66
2021/07/22 01:56:57;;;;;;;2.90;2.15;;;;;;;14.93;67.47;98471.31;4993757;28;20066;-67
2021/07/22 01:59:24;;;;;;;3.00;1.75;;;;;;;15.10;65.75;98471.59;4992053;28;20460;-67
2021/07/22 02:01:52;;;;;;;3.50;1.92;;;;;;;15.39;65.30;98465.31;4976371;28;20226;-65
2021/07/22 02:04:33;;;;;;;5.28;2.13;;;;;;;15.61;63.83;98475.38;4993261;28;20050;-65
2021/07/22 02:06:59;;;;;;;2.05;1.83;;;;;;;15.83;62.61;98478.22;4975762;28;20066;-65
2021/07/22 02:09:25;;;;;;;2.33;1.90;;;;;;;16.07;61.74;98480.75;4991936;28;20064;-66
2021/07/22 02:11:53;;;;;;;3.25;1.70;;;;;;;16.36;60.65;98487.72;4993471;28;20096;-66
2021/07/22 02:14:19;;;;;;;2.20;2.00;;;;;;;16.67;59.08;98495.13;4993055;28;20066;-67
2021/07/22 02:16:47;;;;;;;1.95;1.75;;;;;;;16.75;58.19;98494.41;4991802;28;20042;-65
2021/07/22 02:19:15;;;;;;;4.25;1.95;;;;;;;16.89;57.62;98489.09;4991771;28;20054;-67
2021/07/22 02:21:42;;;;;;;3.97;2.03;;;;;;;17.12;56.49;98489.91;4975472;28;20050;-67
2021/07/22 02:24:11;;;;;;;2.22;1.73;;;;;;;17.22;55.65;98487.78;4991498;28;20043;-67
2021/07/22 02:26:45;;;;;;;1.88;1.67;;;;;;;17.43;54.82;98482.75;4990746;28;20128;-67
2021/07/22 02:29:11;;;;;;;2.83;1.63;;;;;;;17.45;54.29;98482.47;4992534;28;20038;-67
2021/07/22 02:31:37;;;;;;;2.28;1.77;;;;;;;17.70;53.53;98492.53;4991336;28;20047;-67
2021/07/22 02:34:06;;;;;;;1.45;1.35;;;;;;;17.82;53.45;98499.25;4991449;28;20042;-66
2021/07/22 02:36:33;;;;;;;2.88;1.50;;;;;;;17.91;52.86;98484.00;4990894;28;20500;-67
2021/07/22 02:39:06;;;;;;;1.67;1.30;;;;;;;18.24;51.50;98489.88;4991414;28;20089;-66
2021/07/22 02:41:32;;;;;;;3.05;1.40;;;;;;;18.36;51.36;98495.44;4992309;28;20452;-66
2021/07/22 02:44:00;;;;;;;3.38;1.33;;;;;;;18.49;51.52;98496.41;4991194;28;20424;-65
2021/07/22 02:46:29;;;;;;;2.60;1.38;;;;;;;18.54;50.88;98495.50;4992574;28;20297;-66
2021/07/22 02:48:58;;;;;;;2.03;1.20;;;;;;;18.71;50.50;98494.75;4992637;28;20100;-67
2021/07/22 02:51:25;;;;;;;2.63;1.25;;;;;;;18.79;50.17;98502.06;4990930;28;20059;-66
2021/07/22 02:53:51;;;;;;;2.28;1.42;;;;;;;18.87;50.17;98500.50;4991105;28;20196;-66
2021/07/22 02:56:21;;;;;;;1.50;1.33;;;;;;;18.95;49.94;98505.88;4992559;28;20283;-66
2021/07/22 02:58:48;;;;;;;2.65;1.40;;;;;;;19.12;48.58;98507.00;4990976;28;20539;-67
2021/07/22 03:01:14;;;;;;;2.42;1.45;;;;;;;19.34;48.50;98514.13;4992288;28;20263;-67
2021/07/22 03:03:41;;;;;;;1.92;1.52;;;;;;;19.31;48.04;98515.53;4991034;28;20504;-68
2021/07/22 03:06:14;;;;;;;4.10;1.40;;;;;;;19.37;47.65;98508.13;4990841;28;20133;-65
2021/07/22 03:08:43;;;;;;;3.47;1.30;;;;;;;19.43;48.28;98515.69;4992435;28;20516;-67
2021/07/22 03:11:10;;;;;;;1.50;1.20;;;;;;;19.61;46.96;98515.69;4990861;28;20527;-67
2021/07/22 03:13:38;;;;;;;2.90;1.30;;;;;;;19.77;46.64;98522.19;4992319;28;20038;-68
2021/07/22 03:16:06;;;;;;;2.22;1.25;;;;;;;19.91;46.17;98516.59;4990560;28;20062;-66
2021/07/22 03:18:51;;;;;;;1.77;1.45;;;;;;;20.07;45.94;98523.06;4992363;28;20406;-66
2021/07/22 03:21:17;;;;;;;1.30;1.20;;;;;;;20.20;45.07;98524.75;4992285;28;20057;-66
2021/07/22 03:23:53;;;;;;;2.05;1.30;;;;;;;20.39;44.51;98526.28;4990704;28;20504;-66
2021/07/22 03:26:20;;;;;;;2.47;1.13;;;;;;;20.15;44.72;98527.66;4990336;28;20081;-67
2021/07/22 03:28:49;;;;;;;3.15;1.40;;;;;;;20.26;44.21;98546.13;4974477;28;20046;-66
2021/07/22 03:31:23;;;;;;;4.80;1.30;;;;;;;20.17;44.10;98540.75;4990879;28;20124;-67
2021/07/22 03:34:07;;;;;;;1.10;1.10;;;;;;;20.49;44.34;98539.38;4991922;28;20527;-66
2021/07/22 03:36:38;;;;;;;3.95;1.30;;;;;;;20.66;42.96;98548.53;4991958;28;20077;-67
2021/07/22 03:39:13;;;;;;;2.80;1.20;;;;;;;20.62;43.49;98546.50;4991878;28;20042;-67
2021/07/22 03:41:47;;;;;;;1.65;1.15;;;;;;;20.48;43.30;98545.09;4990584;28;20050;-67
2021/07/22 03:44:22;;;;;;;1.67;1.08;;;;;;;20.82;43.01;98544.97;4990491;28;20073;-67
2021/07/22 03:46:49;;;;;;;1.40;1.27;;;;;;;20.85;42.00;98551.59;4990373;28;20181;-67
2021/07/22 03:49:16;;;;;;;1.00;1.00;;;;;;;20.85;42.29;98546.19;4993954;28;20042;-67
2021/07/22 03:51:42;;;;;;;1.45;1.00;;;;;;;20.79;42.31;98553.66;4994454;28;20424;-67
2021/07/22 03:54:09;;;;;;;2.25;1.13;;;;;;;20.87;42.41;98547.44;4994662;28;20132;-67
2021/07/22 03:56:35;;;;;;;1.23;1.15;;;;;;;21.15;42.09;98560.47;4978214;28;20567;-65
2021/07/22 03:59:27;;;;;;;1.10;1.00;;;;;;;21.00;41.14;98558.31;4994391;28;20192;-67
2021/07/22 04:01:56;;;;;;;1.17;1.08;;;;;;;20.81;41.22;98574.91;4995653;28;20057;-66
2021/07/22 04:04:26;;;;;;;1.67;1.08;;;;;;;20.54;41.24;98581.53;4993848;28;20492;-66
2021/07/22 04:06:53;;;;;;;1.20;1.10;;;;;;;20.41;41.75;98569.81;4994212;28;20058;-66
2021/07/22 04:09:29;;;;;;;2.13;0.95;;;;;;;20.17;41.62;98565.75;4994179;28;20100;-67
2021/07/22 04:12:18;;;;;;;1.73;0.98;;;;;;;20.09;41.59;98568.47;4992538;28;20088;-68
2021/07/22 04:15:13;;;;;;;1.67;1.17;;;;;;;20.06;41.96;98558.34;4984395;28;20089;-67
2021/07/22 04:18:01;;;;;;;3.92;1.23;;;;;;;20.48;42.25;98563.94;4976488;28;20492;-68
2021/07/22 04:20:46;;;;;;;4.43;0.90;;;;;;;20.36;41.19;98578.06;4992717;28;20050;-65
2021/07/22 04:23:30;;;;;;;1.95;1.25;;;;;;;20.35;41.42;98571.91;4992805;28;20433;-66
2021/07/22 04:26:17;;;;;;;1.23;1.08;;;;;;;20.35;41.35;98569.22;4992144;28;20571;-65
2021/07/22 04:29:02;;;;;;;1.15;1.02;;;;;;;20.75;41.32;98568.91;4976145;28;20125;-65
2021/07/22 04:31:28;;;;;;;1.08;0.90;;;;;;;20.70;41.39;98569.09;4992323;28;20501;-65
2021/07/22 04:34:29;;;;;;;1.13;1.00;;;;;;;20.90;41.10;98566.78;4953723;29;20505;-66
2021/07/22 04:37:11;;;;;;;1.48;1.02;;;;;;;20.79;40.83;98580.59;4972231;28;20057;-67
2021/07/22 04:39:57;;;;;;;2.35;1.10;;;;;;;20.88;40.99;98567.09;4963056;28;20074;-67
2021/07/22 04:42:36;;;;;;;0.80;0.80;;;;;;;21.20;39.87;98573.72;4992592;28;20054;-66
2021/07/22 04:45:40;;;;;;;3.53;1.17;;;;;;;21.34;39.49;98573.47;4972732;28;20046;-66
2021/07/22 04:48:35;;;;;;;1.25;0.88;;;;;;;21.38;39.30;98587.91;4960591;28;20062;-66
2021/07/22 04:51:27;;;;;;;4.22;0.82;;;;;;;21.10;38.92;98577.59;4988361;28;20054;-68
2021/07/22 04:54:02;;;;;;;1.10;0.90;;;;;;;21.09;38.61;98586.81;4994818;28;20042;-67
2021/07/22 04:56:27;;;;;;;0.98;0.70;;;;;;;20.95;38.64;98588.16;4994254;28;20141;-66
2021/07/22 04:58:53;;;;;;;1.27;1.00;;;;;;;20.67;40.05;98583.19;4993053;28;20088;-65
2021/07/22 05:01:24;;;;;;;1.95;0.90;;;;;;;20.33;39.40;98598.34;4993239;28;20138;-67
2021/07/22 05:03:50;;;;;;;0.60;0.60;;;;;;;20.38;38.41;98594.66;4992960;28;20038;-67
2021/07/22 05:06:17;;;;;;;2.47;0.88;;;;;;;20.16;38.60;98588.41;4994040;28;20081;-66
2021/07/22 05:08:49;;;;;;;0.70;0.70;;;;;;;19.78;39.22;98579.44;4994133;28;20046;-66
2021/07/22 05:11:32;;;;;;;1.67;0.63;;;;;;;19.56;40.21;98583.84;4992854;28;20061;-66
2021/07/22 05:14:03;;;;;;;1.50;0.70;;;;;;;19.56;40.13;98591.91;4992850;28;20042;-65
2021/07/22 05:16:58;;;;;;;0.80;0.70;;;;;;;19.52;40.50;98586.38;4989576;28;20058;-66
2021/07/22 05:19:44;;;;;;;2.50;0.80;;;;;;;19.34;41.42;98590.16;4993690;28;20116;-67
2021/07/22 05:22:45;;;;;;;1.48;0.80;;;;;;;19.20;41.24;98574.16;4971498;28;20527;-65
2021/07/22 05:25:32;;;;;;;0.95;0.77;;;;;;;19.33;41.51;98582.41;4991712;28;20058;-66
2021/07/22 05:28:13;;;;;;;3.40;0.68;;;;;;;19.44;41.68;98579.09;4992569;28;20129;-65
2021/07/22 05:30:54;;;;;;;0.80;0.80;;;;;;;19.27;41.40;98584.47;4992556;28;20073;-64
2021/07/22 05:33:44;;;;;;;0.80;0.80;;;;;;;19.10;41.33;98598.66;4992513;28;20092;-66
2021/07/22 05:36:48;;;;;;;0.95;0.63;;;;;;;18.91;41.24;98590.84;4971737;28;20422;-69
2021/07/22 05:39:21;;;;;;;0.80;0.80;;;;;;;18.76;41.40;98584.00;4955814;28;20051;-66
2021/07/22 05:41:47;;;;;;;3.70;0.70;;;;;;;18.76;41.82;98584.00;4982648;28;20063;-68
2021/07/22 05:44:13;;;;;;;1.85;0.75;;;;;;;18.83;41.35;98591.63;4993818;28;20043;-69
2021/07/22 05:46:39;;;;;;;1.67;0.75;;;;;;;18.74;40.41;98593.50;4975896;28;20061;-67
2021/07/22 05:49:06;;;;;;;1.45;0.80;;;;;;;18.66;39.65;98578.91;4993699;28;20092;-67
2021/07/22 05:51:33;;;;;;;0.60;0.60;;;;;;;18.43;38.85;98596.94;4993492;28;20081;-67
2021/07/22 05:53:59;;;;;;;0.52;0.50;;;;;;;18.45;39.59;98588.59;4993611;28;20042;-66
2021/07/22 05:56:25;;;;;;;1.85;0.45;;;;;;;18.49;39.03;98590.34;4992198;28;20095;-66
2021/07/22 05:58:51;;;;;;;1.35;0.90;;;;;;;18.43;38.66;98602.31;4993239;28;20447;-66
2021/07/22 06:01:18;;;;;;;1.02;0.63;;;;;;;18.35;38.87;98605.72;4975644;28;20417;-66
2021/07/22 06:03:44;;;;;;;1.38;0.70;;;;;;;18.10;39.13;98589.19;4988470;28;20552;-66
2021/07/22 06:06:11;;;;;;;1.75;0.68;;;;;;;18.11;38.98;98582.72;4986301;28;20139;-66
2021/07/22 06:08:37;;;;;;;1.80;0.80;;;;;;;18.18;37.13;98585.00;4989170;28;20061;-66
2021/07/22 06:11:07;;;;;;;1.88;0.88;;;;;;;18.15;37.04;98588.28;4989263;28;20069;-65
2021/07/22 06:13:34;;;;;;;1.38;0.80;;;;;;;18.08;37.97;98585.22;4987979;28;20121;-67
2021/07/22 06:16:03;;;;;;;2.78;1.08;;;;;;;18.19;37.82;98586.56;4988987;28;20520;-67
2021/07/22 06:18:29;;;;;;;1.65;0.60;;;;;;;18.16;37.65;98595.22;4972198;28;20301;-64
2021/07/22 06:20:56;;;;;;;2.33;0.60;;;;;;;18.25;38.89;98590.69;4973007;28;20424;-67
2021/07/22 06:23:22;;;;;;;1.40;0.68;;;;;;;18.43;37.74;98593.47;4991313;28;20527;-64
2021/07/22 06:25:48;;;;;;;0.60;0.60;;;;;;;18.25;38.28;98593.38;4989711;28;20058;-66
2021/07/22 06:28:14;;;;;;;0.90;0.55;;;;;;;18.34;38.23;98596.91;4989829;28;20054;-67
2021/07/22 06:30:40;;;;;;;1.33;0.75;;;;;;;18.43;40.25;98586.22;4988323;28;20137;-65
2021/07/22 06:33:06;;;;;;;0.70;0.70;;;;;;;18.47;39.35;98589.88;4990234;28;20165;-67
2021/07/22 06:35:32;;;;;;;2.15;0.70;;;;;;;18.47;38.89;98597.13;4989245;28;20062;-64
2021/07/22 06:37:58;;;;;;;1.10;0.70;;;;;;;18.38;39.55;98594.38;4989819;28;20046;-64
2021/07/22 06:40:31;;;;;;;1.77;0.90;;;;;;;18.55;39.61;98591.78;4989841;28;20615;-65
2021/07/22 06:42:56;;;;;;;4.60;0.80;;;;;;;18.56;39.72;98589.88;4988346;28;20141;-67
2021/07/22 06:45:22;;;;;;;1.92;0.90;;;;;;;18.55;39.29;98585.63;5003397;28;20124;-65
2021/07/22 06:47:48;;;;;;;0.70;0.70;;;;;;;18.58;38.96;98588.47;5008737;28;20482;-66
2021/07/22 06:50:14;;;;;;;0.50;0.50;;;;;;;18.67;39.00;98587.72;5008954;28;20068;-65
2021/07/22 06:52:39;;;;;;;0.80;0.80;;;;;;;18.69;39.33;98588.22;5009677;28;20422;-65
2021/07/22 06:55:06;;;;;;;1.15;0.90;;;;;;;18.66;39.13;98589.63;5009593;28;20563;-67
2021/07/22 06:57:33;;;;;;;3.60;0.80;;;;;;;18.61;39.62;98592.44;5008343;28;20137;-66
2021/07/22 06:59:59;;;;;;;0.77;0.77;;;;;;;18.63;40.11;98592.16;5010909;28;20033;-67
2021/07/22 07:02:24;;;;;;;0.75;0.75;;;;;;;18.66;39.28;98596.91;5009062;28;20092;-66
2021/07/22 07:04:50;;;;;;;1.75;0.95;;;;;;;18.74;40.44;98588.91;5008151;28;20069;-67
2021/07/22 07:07:16;;;;;;;3.25;0.90;;;;;;;18.88;39.39;98591.47;5009142;28;20063;-68
2021/07/22 07:09:42;;;;;;;1.70;0.70;;;;;;;18.91;39.40;98592.75;5007371;28;20393;-66
2021/07/22 07:12:10;;;;;;;0.60;0.60;;;;;;;18.95;38.32;98594.50;5009152;28;20353;-69
2021/07/22 07:14:38;;;;;;;3.22;0.90;;;;;;;18.94;39.00;98589.44;4991631;28;20079;-66
2021/07/22 07:17:04;;;;;;;1.65;0.90;;;;;;;18.99;38.64;98589.28;4991805;28;20401;-67
2021/07/22 07:19:30;;;;;;;1.08;0.77;;;;;;;18.99;37.21;98591.97;5009040;28;20044;-66
2021/07/22 07:21:56;;;;;;;1.35;1.05;;;;;;;18.96;36.67;98585.34;5008776;28;20046;-66
2021/07/22 07:24:22;;;;;;;0.60;0.60;;;;;;;18.86;36.34;98595.59;5007721;28;20045;-66
2021/07/22 07:26:48;;;;;;;4.13;1.00;;;;;;;18.88;36.54;98588.00;4989380;28;20058;-65
2021/07/22 07:29:13;;;;;;;1.17;1.10;;;;;;;18.88;37.09;98596.03;5008186;28;20507;-66
2021/07/22 07:31:40;;;;;;;1.17;0.70;;;;;;;18.75;37.47;98587.00;5010409;28;20507;-66
2021/07/22 07:34:07;;;;;;;0.80;0.80;;;;;;;18.81;38.05;98591.91;5008911;28;20045;-66
2021/07/22 07:36:33;;;;;;;1.23;0.80;;;;;;;18.96;37.67;98596.06;5009940;28;20192;-66
2021/07/22 07:38:59;;;;;;;1.08;0.98;;;;;;;19.08;38.24;98592.78;5007923;28;20046;-65
2021/07/22 07:41:25;;;;;;;1.10;1.00;;;;;;;19.03;38.48;98596.44;5009446;28;20046;-65
2021/07/22 07:43:51;;;;;;;0.70;0.70;;;;;;;18.96;38.23;98595.28;5009466;28;20052;-65
2021/07/22 07:46:16;;;;;;;0.80;0.80;;;;;;;18.98;38.67;98595.78;5008874;28;20050;-66
2021/07/22 07:48:43;;;;;;;1.77;0.73;;;;;;;19.06;38.73;98587.75;5005212;28;20132;-66
2021/07/22 07:51:10;;;;;;;0.73;0.70;;;;;;;19.08;38.63;98592.78;5003165;28;20046;-66
2021/07/22 07:53:36;;;;;;;1.88;0.75;;;;;;;19.00;37.97;98596.25;5005338;28;20419;-66
2021/07/22 07:56:03;;;;;;;0.60;0.60;;;;;;;18.88;37.48;98588.78;4956100;28;20170;-67
2021/07/22 07:58:29;;;;;;;1.77;0.70;;;;;;;18.87;38.08;98594.47;4990445;28;20045;-72
2021/07/22 08:00:54;;;;;;;1.25;0.90;;;;;;;18.91;38.97;98593.53;5006567;28;20415;-69
2021/07/22 08:03:21;;;;;;;0.90;0.80;;;;;;;18.92;39.39;98591.66;5008795;28;20049;-68
2021/07/22 08:05:47;;;;;;;0.80;0.80;;;;;;;19.03;38.53;98588.38;5007031;28;20050;-66
2021/07/22 08:08:14;;;;;;;1.42;0.70;;;;;;;18.99;37.60;98587.38;5006109;28;20052;-68
2021/07/22 08:10:42;;;;;;;1.80;0.80;;;;;;;19.06;37.54;98593.13;5005825;28;20053;-65
2021/07/22 08:13:10;;;;;;;1.83;0.70;;;;;;;19.02;37.49;98592.13;5004687;28;20045;-65
2021/07/22 08:15:37;;;;;;;1.70;0.70;;;;;;;18.98;37.11;98593.09;4989290;28;20050;-66
2021/07/22 08:18:02;;;;;;;2.58;0.90;;;;;;;18.98;37.81;98601.94;5007042;28;20053;-65
2021/07/22 08:20:28;;;;;;;3.00;0.77;;;;;;;19.10;38.16;98581.75;5008758;28;20419;-66
2021/07/22 08:22:54;;;;;;;1.50;0.70;;;;;;;19.20;38.05;98592.97;5009157;28;20133;-65
2021/07/22 08:25:23;;;;;;;2.58;0.90;;;;;;;19.29;37.01;98582.22;5005110;28;20046;-67
2021/07/22 08:27:49;;;;;;;1.90;0.90;;;;;;;19.27;35.74;98587.94;4996114;28;20064;-65
2021/07/22 08:30:15;;;;;;;3.80;1.08;;;;;;;19.29;35.79;98587.59;4988310;28;20054;-64
2021/07/22 08:32:42;;;;;;;1.10;0.80;;;;;;;19.19;36.01;98587.91;4988102;28;20074;-64
2021/07/22 08:35:08;;;;;;;0.70;0.70;;;;;;;19.03;36.97;98598.28;4989808;28;20116;-65
2021/07/22 08:37:35;;;;;;;2.97;0.70;;;;;;;19.01;36.27;98589.78;4991346;28;20054;-67
2021/07/22 08:40:04;;;;;;;0.57;0.50;;;;;;;19.03;37.06;98595.63;4990858;28;20065;-65
2021/07/22 08:42:38;;;;;;;0.80;0.75;;;;;;;19.02;35.81;98602.09;4992238;28;20140;-64
2021/07/22 08:45:05;;;;;;;3.13;0.73;;;;;;;18.90;36.60;98597.31;4993112;28;20552;-67
2021/07/22 08:47:31;;;;;;;0.60;0.60;;;;;;;18.95;35.38;98591.03;4990320;28;20416;-66
2021/07/22 08:49:57;;;;;;;1.77;1.25;;;;;;;18.91;35.95;98569.34;4992328;28;20042;-66
2021/07/22 08:52:23;;;;;;;1.33;0.90;;;;;;;19.01;36.21;98579.03;5002497;28;20038;-66
2021/07/22 08:54:48;;;;;;;2.05;1.02;;;;;;;19.19;36.52;98577.97;4993864;28;20038;-66
2021/07/22 08:57:17;;;;;;;0.60;0.60;;;;;;;19.15;36.04;98593.13;5011711;28;20053;-64
2021/07/22 08:59:43;;;;;;;0.98;0.63;;;;;;;19.14;35.74;98580.00;5009443;28;20045;-65
2021/07/22 09:02:12;;;;;;;1.95;1.08;;;;;;;19.23;36.28;98588.88;5006930;28;20053;-66
2021/07/22 09:04:51;;;;;;;1.73;0.80;;;;;;;19.22;34.95;98593.44;5008966;28;20064;-66
2021/07/22 09:07:18;;;;;;;1.05;0.95;;;;;;;19.27;35.78;98579.09;5010731;28;20076;-67
2021/07/22 09:09:44;;;;;;;0.90;0.90;;;;;;;19.24;35.80;98569.75;5011680;28;20132;-66
2021/07/22 09:12:10;;;;;;;0.88;0.73;;;;;;;19.25;36.16;98594.72;5011956;28;20049;-67
2021/07/22 09:14:35;;;;;;;0.60;0.60;;;;;;;19.11;35.41;98589.47;4999282;28;20412;-69
2021/07/22 09:17:02;;;;;;;1.35;0.77;;;;;;;19.06;35.55;98585.06;4989954;28;20137;-67
2021/07/22 09:19:32;;;;;;;3.45;1.02;;;;;;;19.17;35.84;98587.44;5005616;28;20137;-68
2021/07/22 09:21:58;;;;;;;1.27;0.80;;;;;;;19.15;35.49;98592.31;4992262;28;20046;-68
2021/07/22 09:24:24;;;;;;;2.15;0.80;;;;;;;19.20;35.20;98594.88;4989665;28;20046;-66
2021/07/22 09:26:53;;;;;;;3.47;0.60;;;;;;;19.26;34.55;98577.50;4988798;28;20062;-67
2021/07/22 09:29:19;;;;;;;2.87;0.90;;;;;;;19.26;35.31;98591.72;4991030;28;20091;-68
2021/07/22 09:31:48;;;;;;;3.65;1.25;;;;;;;19.34;35.20;98586.69;4988604;28;20050;-68
2021/07/22 09:34:18;;;;;;;1.58;0.98;;;;;;;19.38;35.76;98583.03;4992013;28;20420;-67
2021/07/22 09:36:44;;;;;;;2.17;0.90;;;;;;;19.49;35.00;98591.59;4989451;28;20053;-67
2021/07/22 09:39:30;;;;;;;1.02;0.93;;;;;;;19.45;35.60;98590.66;5001436;28;20042;-67
2021/07/22 09:42:06;;;;;;;1.45;0.90;;;;;;;19.44;35.35;98599.78;5007333;28;20558;-66
2021/07/22 09:44:37;;;;;;;0.93;0.80;;;;;;;19.35;35.33;98586.34;5008927;28;20096;-68
2021/07/22 09:47:07;;;;;;;1.60;0.80;;;;;;;19.35;35.27;98585.56;4999366;28;20046;-67
2021/07/22 09:49:38;;;;;;;0.60;0.57;;;;;;;19.41;35.11;98571.69;4993158;28;20042;-67
2021/07/22 09:52:26;;;;;;;2.40;0.90;;;;;;;19.52;34.11;98570.25;5009802;28;20128;-67
2021/07/22 09:54:53;;;;;;;1.98;0.90;;;;;;;19.62;34.69;98577.22;4969057;28;20049;-66
2021/07/22 09:57:20;;;;;;;4.40;0.80;;;;;;;19.64;35.49;98584.94;5007953;28;20046;-67
2021/07/22 09:59:48;;;;;;;2.08;0.98;;;;;;;19.78;35.75;98577.53;4990550;28;20104;-66
2021/07/22 10:02:22;;;;;;;4.88;0.95;;;;;;;20.04;36.21;98574.81;5009048;28;20057;-68
2021/07/22 10:04:54;;;;;;;1.10;0.70;;;;;;;20.18;35.27;98570.06;5009537;28;20065;-67
2021/07/22 10:07:21;;;;;;;1.90;0.98;;;;;;;20.05;35.25;98568.31;5010802;28;20133;-65
2021/07/22 10:09:53;;;;;;;1.48;0.80;;;;;;;20.08;35.50;98577.66;5008261;28;20324;-65
2021/07/22 10:12:20;;;;;;;0.65;0.65;;;;;;;19.94;36.09;98583.22;5009964;28;20049;-67
2021/07/22 10:14:56;;;;;;;1.70;0.80;;;;;;;20.10;36.49;98573.53;4993137;28;20140;-68
2021/07/22 10:17:41;;;;;;;2.78;0.70;;;;;;;20.33;34.97;98570.66;5009188;28;20046;-67
2021/07/22 10:20:07;;;;;;;3.08;0.98;;;;;;;20.29;35.03;98561.63;5009675;28;20519;-68
2021/07/22 10:22:34;;;;;;;10.15;1.15;;;;;;;20.31;34.84;98552.13;5009710;28;20045;-67
2021/07/22 10:25:00;;;;;;;4.00;1.40;;;;;;;20.34;34.39;98566.84;5006867;28;20500;-67
2021/07/22 10:27:26;;;;;;;2.00;0.80;;;;;;;20.36;34.72;98567.31;5008090;28;20104;-68
2021/07/22 10:29:53;;;;;;;6.53;0.80;;;;;;;20.30;34.93;98572.06;5009784;28;20037;-68
2021/07/22 10:32:22;;;;;;;5.15;1.00;;;;;;;20.32;35.26;98575.22;5009022;28;20045;-67
2021/07/22 10:34:48;;;;;;;2.05;1.00;;;;;;;20.24;35.03;98573.38;4991310;28;20041;-67
2021/07/22 10:37:18;;;;;;;1.55;0.70;;;;;;;20.37;34.74;98566.97;5007836;28;20046;-68
2021/07/22 10:40:08;;;;;;;0.90;0.90;;;;;;;20.52;34.23;98559.47;4991175;28;20042;-65
2021/07/22 10:42:37;;;;;;;;;;;;;;;20.59;34.79;98562.50;5008763;28;20137;-67
2021/07/22 10:45:24;;;;;;;0.60;0.60;;;;;;;20.59;34.63;98560.59;5008780;28;19921;-67
2021/07/22 10:47:58;;;;;;;1.48;0.90;;;;;;;20.75;33.99;98562.75;5008458;28;20049;-66
2021/07/22 10:50:45;;;;;;;1.65;0.70;;;;;;;20.66;34.03;98565.47;5010751;28;20042;-66
2021/07/22 10:53:11;;;;;;;1.70;1.10;;;;;;;20.56;35.48;98566.63;5009790;28;20034;-67
2021/07/22 10:55:40;;;;;;;1.23;0.70;;;;;;;20.73;34.13;98557.66;5009464;28;20049;-66
2021/07/22 10:58:24;;;;;;;6.13;1.20;;;;;;;20.89;33.59;98560.63;4997753;28;20045;-68
2021/07/22 11:00:50;;;;;;;1.80;0.70;;;;;;;20.99;32.78;98554.06;4989722;28;20050;-67
2021/07/22 11:03:35;;;;;;;0.88;0.70;;;;;;;21.02;32.54;98561.47;4991100;28;20046;-68
2021/07/22 11:06:10;;;;;;;0.98;0.98;;;;;;;20.90;32.83;98566.78;4987414;28;20137;-67
2021/07/22 11:08:37;;;;;;;3.60;1.00;;;;;;;20.95;33.96;98562.00;4988455;28;20129;-67
2021/07/22 11:11:07;;;;;;;4.43;0.80;;;;;;;20.87;33.82;98587.06;4988243;28;20365;-66
2021/07/22 11:13:33;;;;;;;2.28;0.80;;;;;;;20.71;33.99;98562.59;4990914;28;20038;-68
2021/07/22 11:16:00;;;;;;;0.98;0.95;;;;;;;20.60;33.31;98575.63;4990923;28;20046;-66
2021/07/22 11:18:47;;;;;;;1.45;0.70;;;;;;;20.59;33.20;98575.97;4972430;28;20061;-64
2021/07/22 11:21:23;;;;;;;1.10;0.77;;;;;;;20.60;32.60;98562.16;4956828;28;20145;-66
2021/07/22 11:23:58;;;;;;;1.88;0.88;;;;;;;20.65;32.62;98569.28;4988116;28;20043;-67
2021/07/22 11:26:25;;;;;;;0.98;0.80;;;;;;;20.76;31.30;98569.69;4988343;28;20064;-67
2021/07/22 11:28:52;;;;;;;0.80;0.80;;;;;;;20.82;32.42;98563.81;4990228;28;20124;-67
2021/07/22 11:31:18;;;;;;;4.00;1.10;;;;;;;20.84;34.05;98566.19;4990047;28;20055;-68
2021/07/22 11:33:43;;;;;;;5.82;1.20;;;;;;;20.97;33.55;98564.34;4989949;28;20053;-67
2021/07/22 11:36:12;;;;;;;0.90;0.90;;;;;;;20.96;32.21;98563.56;4988313;28;20042;-66
2021/07/22 11:38:39;;;;;;;1.02;0.85;;;;;;;21.19;32.35;98541.72;4986701;28;20467;-67
2021/07/22 11:41:13;;;;;;;1.15;0.90;;;;;;;21.48;31.71;98559.78;4987975;28;20172;-67
2021/07/22 11:43:45;;;;;;;3.20;1.23;;;;;;;21.57;32.32;98567.78;4969562;28;20496;-66
2021/07/22 11:46:13;;;;;;;2.05;0.90;;;;;;;21.39;33.18;98570.63;4989511;28;20085;-67
2021/07/22 11:48:40;;;;;;;3.45;1.13;;;;;;;21.01;33.40;98571.47;4988746;28;20042;-67